createdAt,value
2023-05-06T00:01:14.953Z,16.20
2023-05-06T00:03:42.123Z,23.15
2023-05-06T00:06:09.229Z,21.05
2023-05-06T00:08:36.262Z,17.20
2023-05-06T00:11:03.059Z,17.23
2023-05-06T00:13:29.775Z,14.40
2023-05-06T00:15:56.672Z,21.83
2023-05-06T00:18:23.795Z,15.63
2023-05-06T00:20:50.595Z,15.93
2023-05-06T00:23:17.259Z,16.30
2023-05-06T00:25:43.971Z,18.48
2023-05-06T00:28:10.654Z,20.35
2023-05-06T00:30:37.387Z,19.02
2023-05-06T00:33:04.329Z,18.13
2023-05-06T00:35:31.192Z,18.13
2023-05-06T00:38:08.959Z,17.50
2023-05-06T00:40:36.276Z,17.10
2023-05-06T00:43:03.770Z,25.45
2023-05-06T00:45:30.612Z,21.02
2023-05-06T00:47:58.218Z,19.05
2023-05-06T00:50:25.836Z,20.65
2023-05-06T00:52:54.576Z,19.20
2023-05-06T00:55:21.987Z,15.30
2023-05-06T00:57:51.886Z,20.73
2023-05-06T01:00:20.350Z,17.33
2023-05-06T01:02:48.379Z,22.58
2023-05-06T01:05:22.305Z,16.52
2023-05-06T01:08:15.165Z,15.13
2023-05-06T01:11:02.583Z,12.65
2023-05-06T01:13:52.727Z,17.13
2023-05-06T01:16:21.495Z,17.35
2023-05-06T01:18:50.753Z,13.65
2023-05-06T01:21:19.416Z,14.65
2023-05-06T01:23:58.048Z,16.23
2023-05-06T01:26:25.684Z,13.95
2023-05-06T01:28:53.222Z,14.48
2023-05-06T01:31:27.073Z,15.23
2023-05-06T01:34:33.777Z,13.73
2023-05-06T01:37:30.135Z,15.02
2023-05-06T01:39:59.155Z,14.90
2023-05-06T01:42:27.266Z,13.85
2023-05-06T01:44:55.821Z,13.13
2023-05-06T01:47:22.618Z,16.83
2023-05-06T01:49:49.448Z,9.23
2023-05-06T01:52:16.547Z,16.02
2023-05-06T01:54:44.427Z,15.02
2023-05-06T01:57:11.110Z,9.73
2023-05-06T01:59:37.883Z,17.98
2023-05-06T08:08:28.059Z,8.80
2023-05-06T08:10:56.023Z,8.15
2023-05-06T08:13:22.869Z,9.63
2023-05-06T08:15:49.712Z,9.18
2023-05-06T08:18:22.400Z,7.43
2023-05-06T08:20:51.161Z,8.65
2023-05-06T08:23:17.895Z,9.98
2023-05-06T08:25:44.642Z,11.48
2023-05-06T08:28:11.388Z,9.13
2023-05-06T08:30:38.159Z,8.13
2023-05-06T08:33:04.941Z,7.88
2023-05-06T08:35:31.699Z,7.20
2023-05-06T08:37:58.466Z,8.75
2023-05-06T08:40:26.962Z,7.03
2023-05-06T08:42:56.035Z,8.90
2023-05-06T08:45:23.390Z,8.40
2023-05-06T08:47:50.342Z,8.50
2023-05-06T08:50:17.146Z,8.75
2023-05-06T08:52:43.915Z,11.20
2023-05-06T08:55:11.551Z,9.90
2023-05-06T08:57:38.569Z,6.30
2023-05-06T09:00:06.871Z,8.70
2023-05-06T09:02:33.701Z,6.03
2023-05-06T09:05:00.985Z,8.23
2023-05-06T09:07:27.737Z,10.77
2023-05-06T09:09:54.503Z,7.32
2023-05-06T09:12:21.272Z,6.18
2023-05-06T09:14:51.311Z,4.80
2023-05-06T09:17:28.017Z,4.90
2023-05-06T09:19:59.758Z,5.60
2023-05-06T09:22:28.605Z,4.72
2023-05-06T09:24:56.986Z,4.60
2023-05-06T09:27:33.293Z,5.90
2023-05-06T09:30:07.227Z,4.40
2023-05-06T09:32:37.337Z,3.78
2023-05-06T09:35:06.969Z,3.58
2023-05-06T09:37:33.862Z,4.07
2023-05-06T09:40:01.189Z,2.65
2023-05-06T09:42:31.055Z,3.25
2023-05-06T09:45:01.886Z,3.63
2023-05-06T09:47:35.210Z,3.13
2023-05-06T09:50:03.361Z,2.95
2023-05-06T09:52:31.386Z,3.42
2023-05-06T09:54:58.579Z,3.58
2023-05-06T09:57:26.232Z,2.38
2023-05-06T09:59:54.356Z,3.05
2023-05-06T10:02:23.658Z,5.68
2023-05-06T10:04:51.643Z,2.78
2023-05-06T10:07:23.508Z,1.88
2023-05-06T10:09:51.429Z,1.70
2023-05-06T10:12:19.211Z,3.65
2023-05-06T10:14:46.289Z,2.60
2023-05-06T10:17:13.845Z,2.47
2023-05-06T10:19:45.600Z,2.13
2023-05-06T10:22:18.338Z,5.05
2023-05-06T10:24:59.344Z,3.22
2023-05-06T10:27:27.367Z,2.38
2023-05-06T10:29:59.517Z,2.03
2023-05-06T10:32:30.605Z,2.90
2023-05-06T10:35:08.539Z,2.80
2023-05-06T10:37:35.949Z,3.55
2023-05-06T10:40:04.651Z,1.70
2023-05-06T10:42:35.557Z,2.65
2023-05-06T10:45:04.187Z,4.47
2023-05-06T10:47:56.375Z,3.00
2023-05-06T10:50:24.295Z,4.00
2023-05-06T10:52:57.015Z,4.38
2023-05-06T10:55:34.869Z,2.42
2023-05-06T10:58:16.012Z,2.30
2023-05-06T11:00:55.384Z,2.35
2023-05-06T11:03:24.353Z,1.98
2023-05-06T11:05:52.201Z,3.63
2023-05-06T11:08:24.790Z,2.92
2023-05-06T11:10:55.173Z,1.90
2023-05-06T11:13:27.728Z,4.78
2023-05-06T11:15:56.459Z,1.65
2023-05-06T11:18:34.001Z,2.15
2023-05-06T11:21:03.344Z,3.22
2023-05-06T11:23:42.843Z,2.15
2023-05-06T11:26:10.594Z,3.03
2023-05-06T11:28:38.632Z,2.72
2023-05-06T11:31:05.944Z,4.15
2023-05-06T11:33:34.475Z,1.50
2023-05-06T11:36:02.192Z,3.33
2023-05-06T11:38:46.225Z,2.30
2023-05-06T11:41:13.720Z,3.55
2023-05-06T11:43:40.457Z,2.65
2023-05-06T11:46:07.363Z,4.93
2023-05-06T11:48:34.151Z,1.75
2023-05-06T11:51:00.812Z,2.30
2023-05-06T11:53:27.493Z,5.90
2023-05-06T11:55:54.465Z,2.33
2023-05-06T11:58:26.539Z,2.35
2023-05-06T12:00:57.700Z,3.00
2023-05-06T12:03:26.224Z,4.53
2023-05-06T12:05:53.384Z,7.25
2023-05-06T12:08:27.944Z,3.80
2023-05-06T12:11:00.905Z,1.95
2023-05-06T12:13:28.878Z,5.18
2023-05-06T12:15:56.551Z,2.75
2023-05-06T12:18:24.171Z,3.08
2023-05-06T12:20:54.663Z,5.57
2023-05-06T12:23:24.570Z,3.15
2023-05-06T12:26:09.164Z,4.18
2023-05-06T12:28:37.110Z,3.05
2023-05-06T12:31:20.093Z,2.25
2023-05-06T12:33:50.972Z,5.38
2023-05-06T12:36:18.656Z,2.90
2023-05-06T12:38:57.269Z,11.02
2023-05-06T12:41:35.501Z,8.40
2023-05-06T12:44:02.184Z,4.97
2023-05-06T12:46:28.983Z,2.78
2023-05-06T12:49:00.330Z,3.42
2023-05-06T12:53:54.264Z,1.85
2023-05-06T12:56:22.142Z,2.88
2023-05-06T12:59:03.015Z,3.53
2023-05-06T13:01:30.030Z,3.63
2023-05-06T13:03:59.412Z,2.75
2023-05-06T13:06:26.174Z,2.88
2023-05-06T13:08:52.924Z,1.92
2023-05-06T13:11:21.491Z,3.53
2023-05-06T13:13:48.517Z,3.35
2023-05-06T13:16:16.069Z,3.33
2023-05-06T13:18:42.856Z,1.13
2023-05-06T13:21:09.715Z,1.67
2023-05-06T13:23:38.088Z,1.13
2023-05-06T13:26:06.007Z,1.67
2023-05-06T13:28:35.263Z,2.08
2023-05-06T13:31:02.266Z,1.83
2023-05-06T13:33:29.077Z,3.08
2023-05-06T13:35:55.954Z,2.97
2023-05-06T13:38:22.921Z,2.55
2023-05-06T13:40:52.132Z,4.15
2023-05-06T13:43:22.108Z,2.03
2023-05-06T13:45:48.813Z,3.92
2023-05-06T13:48:15.756Z,3.25
2023-05-06T13:50:48.925Z,2.10
2023-05-06T13:53:15.863Z,2.38
2023-05-06T13:55:43.394Z,4.35
2023-05-06T13:58:10.953Z,3.05
2023-05-06T14:00:37.779Z,5.10
2023-05-06T14:03:04.552Z,2.30
2023-05-06T14:05:32.427Z,3.30
2023-05-06T14:07:59.192Z,4.03
2023-05-06T14:10:26.022Z,3.20
2023-05-06T14:12:52.971Z,3.00
2023-05-06T14:15:19.941Z,3.83
2023-05-06T14:17:46.657Z,4.82
2023-05-06T14:20:13.431Z,3.08
2023-05-06T14:22:41.437Z,3.80
2023-05-06T14:25:09.416Z,2.45
2023-05-06T14:27:36.816Z,2.38
2023-05-06T14:30:09.338Z,2.50
2023-05-06T14:32:36.493Z,3.33
2023-05-06T14:35:03.342Z,3.78
2023-05-06T14:37:30.081Z,2.20
2023-05-06T14:39:57.485Z,2.17
2023-05-06T14:42:24.259Z,2.78
2023-05-06T14:44:51.020Z,1.77
2023-05-06T14:47:17.878Z,3.40
2023-05-06T14:49:44.581Z,2.63
2023-05-06T14:52:11.297Z,1.75
2023-05-06T14:54:42.258Z,1.63
2023-05-06T14:57:09.845Z,3.13
2023-05-06T14:59:37.034Z,2.63
2023-05-06T15:02:06.803Z,2.95
2023-05-06T15:04:33.509Z,2.20
2023-05-06T15:07:00.426Z,3.22
2023-05-06T15:09:27.153Z,3.17
2023-05-06T15:11:53.953Z,2.33
2023-05-06T15:14:20.671Z,2.80
2023-05-06T15:16:47.425Z,3.10
2023-05-06T15:19:16.865Z,4.38
2023-05-06T15:21:44.001Z,2.17
2023-05-06T15:24:10.724Z,1.50
2023-05-06T15:26:37.474Z,3.90
2023-05-06T15:29:05.264Z,2.55
2023-05-06T15:31:32.460Z,2.00
2023-05-06T15:34:00.718Z,2.88
2023-05-06T15:36:27.714Z,2.03
2023-05-06T15:39:00.099Z,3.13
2023-05-06T15:41:32.651Z,2.10
2023-05-06T15:44:01.623Z,2.78
2023-05-06T15:46:30.038Z,3.72
2023-05-06T15:49:17.445Z,3.40
2023-05-06T15:51:44.049Z,2.33
2023-05-06T15:54:10.848Z,1.42
2023-05-06T15:56:41.109Z,1.90
2023-05-06T15:59:08.595Z,2.50
2023-05-06T16:01:54.041Z,2.75
2023-05-06T16:04:23.033Z,2.38
2023-05-06T16:06:50.139Z,2.00
2023-05-06T16:09:16.842Z,3.25
2023-05-06T16:11:43.641Z,2.13
2023-05-06T16:14:10.509Z,5.70
2023-05-06T16:16:37.391Z,6.63
2023-05-06T16:19:04.607Z,3.78
2023-05-06T16:21:31.693Z,2.97
2023-05-06T16:23:58.427Z,4.20
2023-05-06T16:26:25.187Z,4.50
2023-05-06T16:28:53.606Z,3.00
2023-05-06T16:31:20.504Z,3.50
2023-05-06T16:33:47.300Z,2.08
2023-05-06T16:36:14.053Z,1.90
2023-05-06T16:38:40.847Z,1.17
2023-05-06T16:41:07.553Z,1.30
2023-05-06T16:43:34.720Z,1.85
2023-05-06T16:46:01.514Z,2.58
2023-05-06T16:48:28.814Z,2.15
2023-05-06T16:50:55.639Z,3.08
2023-05-06T16:53:22.480Z,3.20
2023-05-06T16:55:49.882Z,1.23
2023-05-06T16:58:16.691Z,2.25
2023-05-06T17:00:44.079Z,2.80
2023-05-06T17:03:11.566Z,1.55
2023-05-06T17:05:38.578Z,2.15
2023-05-06T17:08:05.729Z,1.92
2023-05-06T17:10:32.451Z,2.95
2023-05-06T17:12:59.552Z,1.80
2023-05-06T17:15:26.464Z,2.28
2023-05-06T17:17:53.318Z,2.42
2023-05-06T17:20:20.334Z,2.63
2023-05-06T17:22:47.681Z,2.05
2023-05-06T17:25:14.888Z,1.80
2023-05-06T17:27:41.892Z,0.90
2023-05-06T17:30:12.060Z,1.85
2023-05-06T17:32:39.279Z,3.40
2023-05-06T17:35:07.367Z,2.03
2023-05-06T17:37:34.668Z,2.05
2023-05-06T17:40:02.019Z,2.47
2023-05-06T17:42:29.756Z,2.75
2023-05-06T17:44:56.508Z,2.78
2023-05-06T17:47:23.287Z,2.67
2023-05-06T17:49:53.815Z,2.97
2023-05-06T17:52:20.840Z,3.60
2023-05-06T17:55:05.764Z,2.85
2023-05-06T17:57:37.632Z,1.95
2023-05-06T18:00:05.501Z,1.77
2023-05-06T18:02:38.856Z,4.25
2023-05-06T18:05:06.488Z,1.67
2023-05-06T18:07:35.580Z,2.47
2023-05-06T18:10:02.425Z,2.20
2023-05-06T18:12:29.173Z,1.65
2023-05-06T18:14:56.829Z,1.48
2023-05-06T18:17:23.781Z,2.03
2023-05-06T18:19:50.655Z,1.50
2023-05-06T18:22:17.459Z,1.33
2023-05-06T18:24:44.389Z,2.50
2023-05-06T18:27:12.766Z,2.45
2023-05-06T18:29:39.908Z,3.00
2023-05-06T18:32:06.772Z,2.05
2023-05-06T18:34:34.503Z,3.08
2023-05-06T18:37:01.304Z,2.30
2023-05-06T18:39:27.981Z,1.73
2023-05-06T18:41:54.710Z,1.92
2023-05-06T18:44:21.432Z,1.83
2023-05-06T18:46:48.189Z,2.53
2023-05-06T18:49:14.937Z,1.60
2023-05-06T18:51:41.711Z,1.77
2023-05-06T18:54:08.502Z,2.15
2023-05-06T18:56:36.715Z,2.55
2023-05-06T18:59:03.631Z,2.60
2023-05-06T19:01:30.433Z,2.20
2023-05-06T19:03:57.468Z,2.63
2023-05-06T19:06:24.219Z,2.28
2023-05-06T19:08:51.053Z,1.73
2023-05-06T19:11:21.238Z,2.30
2023-05-06T19:13:48.008Z,2.90
2023-05-06T19:16:14.916Z,2.30
2023-05-06T19:18:41.868Z,2.80
2023-05-06T19:21:12.314Z,1.60
2023-05-06T19:23:39.397Z,4.80
2023-05-06T19:26:07.095Z,3.05
2023-05-06T19:28:34.316Z,2.33
2023-05-06T19:31:01.563Z,1.60
2023-05-06T19:33:28.633Z,2.85
2023-05-06T19:35:55.514Z,1.70
2023-05-06T19:38:22.380Z,1.95
2023-05-06T19:40:49.140Z,1.45
2023-05-06T19:43:15.989Z,2.90
2023-05-06T19:45:42.841Z,2.22
2023-05-06T19:48:09.532Z,3.03
2023-05-06T19:50:36.730Z,3.20
2023-05-06T19:53:03.749Z,3.22
2023-05-06T19:55:31.218Z,2.30
2023-05-06T19:57:58.548Z,2.08
2023-05-06T20:00:27.952Z,3.63
2023-05-06T20:02:59.561Z,1.85
2023-05-06T20:05:30.920Z,2.85
2023-05-06T20:07:59.853Z,4.03
2023-05-06T20:10:28.101Z,3.17
2023-05-06T20:12:57.341Z,3.45
2023-05-06T20:15:24.899Z,4.20
2023-05-06T20:17:51.877Z,2.63
2023-05-06T20:20:19.373Z,2.50
2023-05-06T20:22:46.219Z,2.17
2023-05-06T20:25:18.758Z,4.82
2023-05-06T20:27:46.369Z,4.82
2023-05-06T20:30:13.302Z,4.15
2023-05-06T20:32:40.748Z,2.20
2023-05-06T20:35:08.160Z,5.32
2023-05-06T20:37:36.247Z,4.22
2023-05-06T20:40:05.667Z,3.10
2023-05-06T20:42:32.611Z,4.60
2023-05-06T20:45:00.076Z,3.97
2023-05-06T20:47:27.440Z,4.95
2023-05-06T20:49:54.652Z,6.38
2023-05-06T20:52:21.824Z,5.43
2023-05-06T20:54:49.147Z,4.95
2023-05-06T20:57:17.770Z,5.32
2023-05-06T20:59:44.686Z,6.20
2023-05-06T21:02:11.619Z,4.03
2023-05-06T21:04:38.496Z,4.25
2023-05-06T21:07:05.499Z,5.53
2023-05-06T21:09:32.342Z,3.53
2023-05-06T21:11:59.267Z,3.92
2023-05-06T21:14:27.049Z,5.13
2023-05-06T21:16:54.172Z,3.88
2023-05-06T21:19:21.007Z,4.70
2023-05-06T21:21:48.357Z,2.60
2023-05-06T21:24:15.172Z,5.28
2023-05-06T21:26:41.929Z,4.43
2023-05-06T21:29:08.738Z,4.05
2023-05-06T21:31:35.595Z,5.28
2023-05-06T21:34:04.078Z,7.00
2023-05-06T21:36:31.183Z,3.67
2023-05-06T21:39:10.884Z,5.55
2023-05-06T21:41:38.321Z,5.30
2023-05-06T21:44:07.348Z,3.25
2023-05-06T21:46:34.867Z,3.30
2023-05-06T21:49:01.958Z,5.45
2023-05-06T21:51:35.139Z,3.75
2023-05-06T21:54:02.874Z,3.25
2023-05-06T21:56:29.919Z,4.80
2023-05-06T21:58:56.715Z,4.10
2023-05-06T22:01:29.075Z,4.53
2023-05-06T22:03:56.140Z,3.30
2023-05-06T22:06:23.353Z,3.10
2023-05-06T22:08:50.349Z,2.78
2023-05-06T22:11:17.298Z,4.10
2023-05-06T22:13:44.076Z,3.13
2023-05-06T22:16:10.997Z,4.82
2023-05-06T22:18:41.194Z,2.90
2023-05-06T22:21:08.739Z,3.70
2023-05-06T22:23:35.677Z,2.30
2023-05-06T22:26:02.686Z,4.30
2023-05-06T22:28:29.521Z,5.20
2023-05-06T22:30:56.434Z,4.50
2023-05-06T22:33:23.200Z,3.42
2023-05-06T22:35:49.999Z,4.88
2023-05-06T22:38:16.756Z,4.85
2023-05-06T22:40:43.501Z,2.45
2023-05-06T22:43:10.294Z,4.70
2023-05-06T22:45:37.324Z,3.15
2023-05-06T22:48:05.122Z,3.92
2023-05-06T22:50:31.870Z,3.88
2023-05-06T22:53:00.044Z,4.57
2023-05-06T22:55:29.772Z,3.92
2023-05-06T22:57:56.576Z,5.10
2023-05-06T23:00:24.035Z,6.20
2023-05-06T23:02:50.825Z,3.58
2023-05-06T23:05:17.587Z,4.13
2023-05-06T23:07:44.283Z,4.43
2023-05-06T23:10:11.157Z,3.10
2023-05-06T23:12:38.012Z,4.13
2023-05-06T23:15:06.230Z,6.18
2023-05-06T23:17:33.035Z,4.88
2023-05-06T23:20:00.865Z,3.38
2023-05-06T23:22:28.117Z,4.57
2023-05-06T23:24:55.779Z,2.53
2023-05-06T23:27:22.539Z,5.05
2023-05-06T23:29:49.294Z,3.20
2023-05-06T23:32:15.980Z,4.05
2023-05-06T23:34:42.758Z,3.03
2023-05-06T23:37:11.463Z,5.00
2023-05-06T23:39:38.168Z,3.42
2023-05-06T23:42:04.880Z,5.03
2023-05-06T23:44:31.688Z,3.97
2023-05-06T23:46:58.508Z,4.82
2023-05-06T23:49:25.219Z,6.47
2023-05-06T23:51:51.973Z,4.07
2023-05-06T23:54:18.778Z,4.20
2023-05-06T23:56:45.490Z,3.17
2023-05-06T23:59:12.271Z,4.38
